Time;durP1;ratioP1;P1;durP2;ratioP2;P2;SDS_P1;SDS_P2;PMS_P1;PMS_P2;Temp;Humidity;BMP_temperature;BMP_pressure;BME280_temperature;BME280_humidity;BME280_pressure;Samples;Min_cycle;Max_cycle;Signal;HPM_P1;HPM_P2
2021/03/12 00:00:00;;;;;;;47.40;27.77;;;11.60;70.10;;;;;;5026282;28;20218;-60
2021/03/12 00:02:27;;;;;;;39.93;25.90;;;11.60;69.80;;;;;;5042589;28;20215;-59
2021/03/12 00:04:54;;;;;;;41.60;25.93;;;11.60;69.40;;;;;;5041747;28;20635;-60
2021/03/12 00:07:21;;;;;;;45.60;27.67;;;11.60;68.30;;;;;;5030952;28;20215;-60
2021/03/12 00:09:47;;;;;;;48.00;26.73;;;11.60;68.30;;;;;;5034196;28;20203;-60
2021/03/12 00:12:14;;;;;;;39.43;26.60;;;11.70;68.20;;;;;;5029228;28;20211;-60
2021/03/12 00:14:42;;;;;;;42.90;26.30;;;11.60;68.10;;;;;;5035620;28;20235;-60
2021/03/12 00:17:09;;;;;;;41.87;25.87;;;11.60;68.70;;;;;;5020943;28;20211;-60
2021/03/12 00:19:36;;;;;;;42.50;26.63;;;11.50;68.90;;;;;;5036332;28;20302;-60
2021/03/12 00:22:02;;;;;;;43.23;28.33;;;11.40;69.30;;;;;;5035205;28;20215;-60
2021/03/12 00:24:29;;;;;;;45.83;29.30;;;11.30;69.40;;;;;;5044460;28;20234;-60
2021/03/12 00:26:59;;;;;;;54.20;32.00;;;11.30;70.00;;;;;;5022953;28;20211;-60
2021/03/12 00:29:27;;;;;;;51.20;31.37;;;11.20;70.30;;;;;;5037194;28;20570;-60
2021/03/12 00:31:54;;;;;;;55.13;34.73;;;11.20;71.00;;;;;;5037230;28;20211;-61
2021/03/12 00:34:21;;;;;;;54.87;34.37;;;11.10;71.50;;;;;;5040329;28;20590;-60
2021/03/12 00:36:48;;;;;;;50.80;36.07;;;11.10;72.00;;;;;;5035392;28;20667;-60
2021/03/12 00:39:15;;;;;;;56.87;36.30;;;11.00;72.50;;;;;;5032553;28;20207;-60
2021/03/12 00:41:59;;;;;;;54.47;37.07;;;11.00;72.80;;;;;;5038887;28;20211;-59
2021/03/12 00:44:26;;;;;;;58.87;39.83;;;10.90;73.80;;;;;;5040108;28;20225;-59
2021/03/12 00:46:53;;;;;;;67.77;43.20;;;10.80;73.30;;;;;;5031200;28;20214;-60
2021/03/12 00:49:21;;;;;;;71.27;42.33;;;10.80;73.60;;;;;;5035075;28;20207;-60
2021/03/12 00:51:48;;;;;;;58.03;41.10;;;10.80;73.80;;;;;;5037654;28;20241;-60
2021/03/12 00:54:15;;;;;;;67.10;41.97;;;10.80;73.90;;;;;;5036958;28;20235;-60
2021/03/12 00:56:41;;;;;;;64.40;40.93;;;10.80;74.20;;;;;;5011173;28;20621;-60
2021/03/12 00:59:08;;;;;;;62.50;43.80;;;10.80;74.40;;;;;;5030636;28;20202;-60
2021/03/12 01:01:35;;;;;;;67.00;44.03;;;10.70;74.70;;;;;;5023441;28;20203;-60
2021/03/12 01:04:02;;;;;;;65.80;42.63;;;10.70;74.90;;;;;;5011198;28;20318;-60
2021/03/12 01:06:29;;;;;;;61.07;43.00;;;10.70;75.10;;;;;;5035395;28;20215;-60
2021/03/12 01:08:55;;;;;;;65.67;42.13;;;10.70;75.30;;;;;;5033577;28;20207;-60
2021/03/12 01:11:22;;;;;;;63.73;41.20;;;10.60;75.50;;;;;;5040488;28;20215;-60
2021/03/12 01:13:49;;;;;;;61.17;40.00;;;10.60;75.80;;;;;;5027635;28;20223;-60
2021/03/12 01:16:16;;;;;;;64.10;42.93;;;10.60;76.00;;;;;;5038590;28;20230;-59
2021/03/12 01:18:43;;;;;;;65.13;45.30;;;10.60;76.20;;;;;;5015039;28;20211;-59
2021/03/12 01:21:10;;;;;;;63.27;42.20;;;10.50;76.30;;;;;;5039270;28;20207;-60
2021/03/12 01:23:37;;;;;;;67.43;43.40;;;10.60;76.40;;;;;;5029978;28;20210;-60
2021/03/12 01:26:04;;;;;;;62.03;43.77;;;10.60;76.30;;;;;;5044479;28;20229;-60
2021/03/12 01:28:30;;;;;;;62.10;42.07;;;10.60;76.30;;;;;;5017922;28;20218;-60
2021/03/12 01:30:57;;;;;;;61.27;43.13;;;10.60;76.30;;;;;;5035223;28;20230;-60
2021/03/12 01:33:24;;;;;;;56.57;40.90;;;10.60;76.40;;;;;;5031897;28;20288;-60
2021/03/12 01:35:50;;;;;;;61.60;39.70;;;10.60;76.30;;;;;;5035531;28;20221;-60
2021/03/12 01:38:18;;;;;;;59.97;41.93;;;10.60;76.30;;;;;;5041511;28;20280;-60
2021/03/12 01:40:47;;;;;;;63.70;43.87;;;10.60;76.40;;;;;;5033445;28;20218;-60
2021/03/12 01:43:15;;;;;;;65.10;43.20;;;10.70;76.50;;;;;;5029374;28;20212;-59
2021/03/12 01:45:47;;;;;;;60.00;42.07;;;10.70;76.50;;;;;;5036027;28;20214;-60
2021/03/12 01:48:19;;;;;;;66.10;43.57;;;10.70;76.50;;;;;;5034163;28;20211;-60
2021/03/12 01:50:51;;;;;;;63.20;42.97;;;10.70;76.70;;;;;;5026066;28;20211;-61
2021/03/12 01:53:21;;;;;;;62.87;41.43;;;10.70;76.60;;;;;;5040245;28;20227;-60
2021/03/12 01:55:49;;;;;;;65.20;42.43;;;10.70;76.70;;;;;;5027373;28;20206;-60
2021/03/12 01:58:20;;;;;;;65.67;42.60;;;10.70;76.80;;;;;;5042732;28;20203;-60
2021/03/12 02:00:48;;;;;;;58.03;39.93;;;10.70;77.00;;;;;;5044347;28;20541;-60
2021/03/12 02:03:17;;;;;;;59.57;41.47;;;10.80;77.00;;;;;;5040687;28;20307;-60
2021/03/12 02:05:44;;;;;;;66.27;43.10;;;10.80;77.00;;;;;;5038717;28;20202;-60
2021/03/12 02:08:10;;;;;;;59.10;41.37;;;10.80;77.20;;;;;;5020943;28;20218;-60
2021/03/12 02:10:37;;;;;;;56.47;41.50;;;10.80;77.30;;;;;;5036220;28;20214;-60
2021/03/12 02:13:38;;;;;;;59.63;42.33;;;10.80;77.30;;;;;;5015277;28;20230;-60
2021/03/12 02:16:23;;;;;;;65.90;41.77;;;10.80;77.50;;;;;;5008150;28;20203;-60
2021/03/12 02:19:08;;;;;;;64.90;43.47;;;10.80;77.50;;;;;;5029218;28;20204;-60
2021/03/12 02:21:40;;;;;;;62.80;42.93;;;10.70;77.90;;;;;;5038756;28;20203;-60
2021/03/12 02:24:12;;;;;;;59.37;42.07;;;10.70;78.00;;;;;;5024804;28;20219;-60
2021/03/12 02:26:42;;;;;;;66.37;42.87;;;10.70;78.10;;;;;;5029826;28;20207;-60
2021/03/12 02:29:12;;;;;;;61.93;43.23;;;10.60;78.00;;;;;;5042493;28;20214;-60
2021/03/12 02:31:40;;;;;;;61.63;42.27;;;10.60;78.20;;;;;;5024909;28;20306;-60
2021/03/12 02:34:10;;;;;;;67.77;42.97;;;10.60;78.30;;;;;;4998105;28;20681;-60
2021/03/12 02:36:41;;;;;;;58.90;43.37;;;10.60;78.50;;;;;;5024102;28;20207;-60
2021/03/12 02:39:11;;;;;;;61.10;42.70;;;10.60;78.60;;;;;;5019464;28;20641;-60
2021/03/12 02:41:39;;;;;;;58.00;41.53;;;10.50;78.70;;;;;;5016475;28;20206;-60
2021/03/12 02:44:07;;;;;;;64.57;43.33;;;10.50;78.90;;;;;;5018418;28;20230;-60
2021/03/12 02:46:36;;;;;;;60.60;44.57;;;10.40;79.00;;;;;;5015140;28;20219;-60
2021/03/12 02:49:04;;;;;;;57.13;41.87;;;10.30;79.10;;;;;;5019555;28;20633;-60
2021/03/12 02:51:31;;;;;;;57.30;41.20;;;10.30;79.30;;;;;;5016223;28;20227;-60
2021/03/12 02:53:58;;;;;;;61.03;42.40;;;10.20;79.30;;;;;;5013714;28;20585;-60
2021/03/12 02:56:25;;;;;;;57.67;38.20;;;10.20;79.40;;;;;;5010486;28;20644;-60
2021/03/12 02:58:54;;;;;;;51.70;40.13;;;10.10;79.40;;;;;;5014736;28;20215;-60
2021/03/12 03:01:21;;;;;;;63.43;44.93;;;9.90;79.50;;;;;;5011034;28;20302;-60
2021/03/12 03:03:49;;;;;;;58.83;41.47;;;9.80;80.60;;;;;;5014665;28;20688;-60
2021/03/12 03:06:18;;;;;;;62.77;44.27;;;9.80;80.40;;;;;;5009897;28;20219;-59
2021/03/12 03:08:46;;;;;;;60.60;41.77;;;9.70;80.50;;;;;;5005558;28;20204;-60
2021/03/12 03:11:15;;;;;;;55.07;39.70;;;9.70;80.60;;;;;;5009920;28;20212;-60
2021/03/12 03:13:56;;;;;;;62.63;43.30;;;9.70;80.80;;;;;;5008510;28;20226;-60
2021/03/12 03:16:28;;;;;;;60.63;40.53;;;9.60;80.90;;;;;;5010171;28;20210;-60
2021/03/12 03:18:56;;;;;;;61.30;40.90;;;9.50;81.10;;;;;;5027308;28;20296;-60
2021/03/12 03:21:25;;;;;;;57.97;39.70;;;9.50;81.20;;;;;;5010278;28;20215;-60
2021/03/12 03:23:52;;;;;;;56.33;41.40;;;9.40;81.30;;;;;;5018223;28;20311;-60
2021/03/12 03:26:19;;;;;;;59.70;42.20;;;9.40;81.50;;;;;;5015041;28;20299;-60
2021/03/12 03:28:46;;;;;;;66.17;42.60;;;9.30;81.90;;;;;;5021315;28;20212;-60
2021/03/12 03:31:13;;;;;;;60.03;41.30;;;9.30;82.20;;;;;;5015650;28;20212;-60
2021/03/12 03:33:39;;;;;;;62.10;40.53;;;9.20;82.20;;;;;;5011936;28;20239;-60
2021/03/12 03:36:07;;;;;;;61.30;41.13;;;9.20;82.30;;;;;;5014979;28;20208;-60
2021/03/12 03:38:33;;;;;;;60.53;42.77;;;9.20;82.40;;;;;;5023246;28;20212;-60
2021/03/12 03:41:11;;;;;;;61.73;40.73;;;9.10;82.50;;;;;;5012195;28;20204;-60
2021/03/12 03:43:42;;;;;;;60.17;39.10;;;9.10;82.60;;;;;;5024494;28;20211;-60
2021/03/12 03:46:10;;;;;;;65.87;43.70;;;8.90;82.10;;;;;;5009749;28;20205;-60
2021/03/12 03:48:39;;;;;;;62.03;40.87;;;8.80;82.40;;;;;;5014850;28;20217;-60
2021/03/12 03:51:11;;;;;;;62.80;42.63;;;8.70;83.10;;;;;;5015190;28;20538;-60
2021/03/12 03:53:39;;;;;;;61.90;42.93;;;8.70;83.50;;;;;;5023198;28;20235;-60
2021/03/12 03:56:08;;;;;;;62.77;42.40;;;8.70;83.70;;;;;;5014351;28;20215;-60
2021/03/12 03:58:37;;;;;;;65.10;43.07;;;8.70;83.70;;;;;;5021508;28;20208;-60
2021/03/12 04:01:04;;;;;;;61.80;40.53;;;8.60;83.80;;;;;;5012025;28;20216;-60
2021/03/12 04:03:32;;;;;;;60.87;40.80;;;8.60;84.00;;;;;;5015091;28;20223;-60
2021/03/12 04:05:58;;;;;;;69.27;44.80;;;8.40;83.60;;;;;;5014567;28;20630;-60
2021/03/12 04:08:26;;;;;;;69.97;45.40;;;8.20;85.00;;;;;;5001271;28;20215;-60
2021/03/12 04:10:57;;;;;;;67.83;44.07;;;8.10;85.70;;;;;;5009460;28;20204;-60
2021/03/12 04:13:28;;;;;;;69.43;45.93;;;8.10;86.20;;;;;;5010039;28;20235;-60
2021/03/12 04:15:56;;;;;;;67.80;46.57;;;8.00;86.40;;;;;;5010758;28;20208;-60
2021/03/12 04:18:23;;;;;;;70.77;45.57;;;7.90;86.30;;;;;;5009437;28;20200;-60
2021/03/12 04:20:50;;;;;;;77.13;48.03;;;7.90;86.70;;;;;;5021025;28;20224;-60
2021/03/12 04:23:17;;;;;;;74.07;47.40;;;7.90;87.10;;;;;;5018382;28;20234;-60
2021/03/12 04:25:45;;;;;;;68.70;44.50;;;7.90;87.40;;;;;;5015085;28;20208;-60
2021/03/12 04:28:12;;;;;;;67.10;42.87;;;7.90;87.70;;;;;;5007287;28;20216;-60
2021/03/12 04:30:39;;;;;;;65.77;44.20;;;7.90;87.30;;;;;;5006175;28;20215;-60
2021/03/12 04:33:06;;;;;;;71.50;46.10;;;7.80;87.90;;;;;;5023248;28;20242;-60
2021/03/12 04:35:34;;;;;;;63.53;42.27;;;7.80;87.40;;;;;;5013421;28;20278;-60
2021/03/12 04:38:02;;;;;;;59.83;41.30;;;7.80;87.20;;;;;;5034909;28;20213;-60
2021/03/12 04:40:29;;;;;;;57.60;38.67;;;7.80;86.80;;;;;;5016817;28;20214;-60
2021/03/12 04:42:56;;;;;;;58.93;40.87;;;7.70;86.50;;;;;;5016250;28;20210;-60
2021/03/12 04:45:24;;;;;;;54.97;38.43;;;7.70;86.30;;;;;;5027553;28;20207;-60
2021/03/12 04:47:52;;;;;;;59.13;41.10;;;7.60;86.30;;;;;;5027640;28;20215;-61
2021/03/12 04:50:18;;;;;;;55.60;39.70;;;7.60;86.20;;;;;;5013321;28;20611;-60
2021/03/12 04:52:45;;;;;;;62.77;41.37;;;7.60;86.20;;;;;;5019095;28;20216;-60
2021/03/12 04:55:13;;;;;;;61.80;41.30;;;7.60;86.10;;;;;;5042961;28;20229;-60
2021/03/12 04:57:39;;;;;;;62.27;40.43;;;7.50;85.80;;;;;;5024693;28;20214;-60
2021/03/12 05:00:08;;;;;;;60.17;39.50;;;7.40;85.50;;;;;;5025387;28;20653;-60
2021/03/12 05:02:36;;;;;;;57.07;39.37;;;7.40;85.50;;;;;;5014374;28;20210;-60
2021/03/12 05:05:06;;;;;;;53.63;36.47;;;7.30;85.50;;;;;;5030751;28;20222;-60
2021/03/12 05:07:34;;;;;;;52.37;38.13;;;7.20;85.50;;;;;;5033400;28;20229;-60
2021/03/12 05:10:04;;;;;;;64.77;40.57;;;7.10;85.60;;;;;;5016304;28;20218;-60
2021/03/12 05:12:31;;;;;;;65.13;42.33;;;7.10;86.40;;;;;;5032560;28;20215;-60
2021/03/12 05:14:58;;;;;;;64.87;41.63;;;7.00;85.70;;;;;;5036578;28;20245;-60
2021/03/12 05:17:25;;;;;;;75.87;46.30;;;6.90;86.00;;;;;;5034925;28;20203;-60
2021/03/12 05:19:52;;;;;;;75.43;45.07;;;6.70;86.90;;;;;;5032410;28;20317;-60
2021/03/12 05:22:19;;;;;;;73.73;45.50;;;6.80;87.70;;;;;;5028599;28;20235;-60
2021/03/12 05:24:46;;;;;;;71.43;46.63;;;6.80;88.30;;;;;;5033535;28;20630;-60
2021/03/12 05:27:14;;;;;;;70.47;45.27;;;6.80;88.50;;;;;;5016442;28;20247;-60
2021/03/12 05:29:40;;;;;;;78.40;45.13;;;6.90;88.60;;;;;;5041097;28;20230;-60
2021/03/12 05:32:07;;;;;;;70.67;46.73;;;6.90;88.50;;;;;;5039703;28;20559;-60
2021/03/12 05:34:34;;;;;;;77.80;49.67;;;7.00;88.70;;;;;;5043962;28;20908;-60
2021/03/12 05:37:01;;;;;;;71.73;45.57;;;7.10;89.10;;;;;;5027363;28;20217;-60
2021/03/12 05:39:28;;;;;;;71.63;45.23;;;7.10;89.30;;;;;;5039093;28;20650;-60
2021/03/12 05:41:55;;;;;;;63.67;42.80;;;7.10;88.90;;;;;;5049518;28;20222;-60
2021/03/12 05:44:22;;;;;;;67.80;45.83;;;7.00;88.80;;;;;;5039533;28;20207;-60
2021/03/12 05:46:50;;;;;;;71.80;48.53;;;7.00;89.60;;;;;;5035317;28;20219;-60
2021/03/12 05:49:17;;;;;;;71.40;44.70;;;7.10;89.60;;;;;;5024970;28;20229;-60
2021/03/12 05:51:44;;;;;;;69.40;44.20;;;7.10;89.80;;;;;;5040367;28;20210;-60
2021/03/12 05:54:11;;;;;;;63.43;42.03;;;7.20;89.60;;;;;;5017593;28;20234;-60
2021/03/12 05:56:38;;;;;;;68.00;42.57;;;7.20;89.10;;;;;;5038070;28;20687;-60
2021/03/12 05:59:05;;;;;;;68.10;43.30;;;7.20;88.60;;;;;;5043407;28;20639;-60
2021/03/12 06:01:36;;;;;;;64.57;41.83;;;7.20;88.40;;;;;;5037429;28;20205;-60
2021/03/12 06:04:03;;;;;;;67.73;42.17;;;7.30;88.30;;;;;;5035721;28;20211;-60
2021/03/12 06:06:30;;;;;;;63.63;41.93;;;7.30;88.10;;;;;;5039111;28;20203;-60
2021/03/12 06:08:57;;;;;;;70.37;43.77;;;7.30;87.80;;;;;;5030699;28;20628;-60
2021/03/12 06:11:23;;;;;;;62.77;43.47;;;7.40;87.60;;;;;;5030327;28;20212;-60
2021/03/12 06:13:54;;;;;;;69.43;44.23;;;7.50;87.60;;;;;;5034641;28;20539;-60
2021/03/12 06:16:31;;;;;;;77.13;45.77;;;7.60;87.60;;;;;;5026793;28;20217;-60
2021/03/12 06:19:18;;;;;;;79.20;48.87;;;7.70;87.70;;;;;;5031387;28;20222;-59
2021/03/12 06:21:48;;;;;;;81.13;50.50;;;7.80;87.90;;;;;;5036186;28;20265;-59
2021/03/12 06:24:23;;;;;;;73.87;47.23;;;8.00;87.90;;;;;;5036235;28;20222;-60
2021/03/12 06:26:50;;;;;;;78.00;49.23;;;8.10;87.80;;;;;;5014793;28;20202;-59
2021/03/12 06:29:17;;;;;;;81.77;50.50;;;8.20;87.60;;;;;;5040871;28;20215;-59
2021/03/12 06:31:51;;;;;;;73.20;49.87;;;8.30;87.50;;;;;;5033346;28;20220;-60
2021/03/12 06:34:18;;;;;;;74.43;48.37;;;8.30;87.70;;;;;;5015258;28;20234;-60
2021/03/12 06:36:45;;;;;;;72.40;48.67;;;8.40;87.70;;;;;;5030392;28;20214;-60
2021/03/12 06:39:12;;;;;;;80.70;51.47;;;8.50;87.60;;;;;;5027617;28;20207;-60
2021/03/12 06:41:42;;;;;;;82.00;50.83;;;8.60;87.40;;;;;;5019053;28;20210;-60
2021/03/12 06:44:32;;;;;;;79.97;52.37;;;8.70;87.60;;;;;;5047739;28;20207;-60
2021/03/12 06:47:00;;;;;;;81.30;51.20;;;8.70;87.70;;;;;;5026913;28;20221;-60
2021/03/12 06:49:27;;;;;;;78.33;51.63;;;8.90;87.60;;;;;;5051948;28;20298;-60
2021/03/12 06:52:00;;;;;;;86.97;51.57;;;9.00;87.50;;;;;;5047153;28;20560;-59
2021/03/12 06:54:32;;;;;;;78.57;50.33;;;9.00;87.40;;;;;;5028738;28;20253;-59
2021/03/12 06:56:59;;;;;;;82.20;51.97;;;9.10;87.50;;;;;;5047561;28;20217;-59
2021/03/12 06:59:26;;;;;;;79.13;49.93;;;9.20;87.50;;;;;;5026580;28;20682;-59
2021/03/12 07:02:00;;;;;;;83.07;54.33;;;9.30;87.40;;;;;;5035197;28;20612;-60
2021/03/12 07:04:28;;;;;;;85.40;56.43;;;9.30;87.30;;;;;;5043360;28;20214;-60
2021/03/12 07:06:57;;;;;;;78.67;55.10;;;9.50;87.20;;;;;;5024151;28;20709;-59
2021/03/12 07:09:26;;;;;;;79.70;53.13;;;9.60;87.30;;;;;;5033125;28;20214;-60
2021/03/12 07:11:55;;;;;;;90.53;57.07;;;9.70;87.30;;;;;;5024343;28;20215;-60
2021/03/12 07:14:22;;;;;;;83.13;53.93;;;9.80;87.10;;;;;;5044012;28;20260;-60
2021/03/12 07:16:59;;;;;;;89.53;58.37;;;9.80;87.30;;;;;;5034069;28;20590;-60
2021/03/12 07:19:27;;;;;;;84.40;55.70;;;10.00;87.50;;;;;;5043174;28;20213;-60
2021/03/12 07:21:57;;;;;;;88.00;56.07;;;10.20;87.20;;;;;;5030750;28;20205;-60
2021/03/12 07:24:25;;;;;;;87.87;57.50;;;10.30;86.60;;;;;;5045761;28;20308;-60
2021/03/12 07:26:57;;;;;;;81.03;55.73;;;10.50;86.40;;;;;;5035718;28;20198;-60
2021/03/12 07:29:28;;;;;;;81.50;55.37;;;10.60;86.20;;;;;;5037479;28;20208;-60
2021/03/12 07:31:57;;;;;;;77.97;55.57;;;10.70;85.90;;;;;;5027904;28;20207;-60
2021/03/12 07:34:31;;;;;;;77.43;54.37;;;10.80;85.60;;;;;;5025370;28;20313;-60
2021/03/12 07:36:59;;;;;;;80.90;54.90;;;10.90;85.10;;;;;;5009536;28;20212;-60
2021/03/12 07:39:45;;;;;;;84.20;56.90;;;11.00;84.90;;;;;;5015594;28;20638;-60
2021/03/12 07:42:17;;;;;;;79.10;54.60;;;11.10;84.60;;;;;;5015020;28;20244;-60
2021/03/12 07:44:46;;;;;;;78.47;53.77;;;11.00;84.50;;;;;;5013318;28;20215;-60
2021/03/12 07:47:27;;;;;;;81.80;53.67;;;11.10;84.20;;;;;;5021635;28;20642;-60
2021/03/12 07:49:55;;;;;;;76.67;53.00;;;11.10;83.90;;;;;;5023650;28;20215;-60
2021/03/12 07:52:51;;;;;;;78.50;52.57;;;11.20;84.40;;;;;;5015793;28;20258;-62
2021/03/12 07:55:36;;;;;;;79.27;52.93;;;11.20;83.60;;;;;;5020177;28;20243;-60
2021/03/12 07:58:11;;;;;;;82.73;53.47;;;11.20;83.10;;;;;;5019799;28;20214;-61
2021/03/12 08:00:52;;;;;;;79.40;55.13;;;11.30;83.20;;;;;;5018751;28;20213;-60
2021/03/12 08:03:30;;;;;;;76.87;53.67;;;11.40;83.50;;;;;;5012299;28;20222;-61
2021/03/12 08:05:57;;;;;;;76.83;54.13;;;11.60;83.00;;;;;;5017411;28;20203;-62
2021/03/12 08:08:38;;;;;;;80.30;55.37;;;11.60;82.30;;;;;;5015772;28;20208;-63
2021/03/12 08:11:22;;;;;;;71.87;50.73;;;11.70;82.10;;;;;;5015236;28;20272;-62
2021/03/12 08:13:49;;;;;;;83.20;56.67;;;11.70;82.30;;;;;;5010593;28;20235;-64
2021/03/12 08:16:16;;;;;;;81.73;55.97;;;11.70;81.90;;;;;;5017255;28;20212;-64
2021/03/12 08:18:43;;;;;;;81.07;56.87;;;11.70;82.20;;;;;;5017736;28;20216;-61
2021/03/12 08:21:30;;;;;;;85.60;55.63;;;11.80;82.40;;;;;;5014813;28;20215;-63
2021/03/12 08:23:58;;;;;;;86.50;54.17;;;11.80;82.10;;;;;;5013449;28;20212;-61
2021/03/12 08:26:51;;;;;;;84.63;55.77;;;12.00;81.70;;;;;;5013670;28;20226;-62
2021/03/12 08:29:37;;;;;;;75.40;53.20;;;12.00;81.40;;;;;;5014889;28;20208;-60
2021/03/12 08:32:43;;;;;;;76.37;52.97;;;12.30;81.60;;;;;;5024925;28;20239;-61
2021/03/12 08:35:32;;;;;;;75.70;54.10;;;12.60;80.20;;;;;;5005175;28;20736;-60
2021/03/12 08:38:23;;;;;;;72.10;52.07;;;12.70;79.20;;;;;;5012951;28;20219;-61
2021/03/12 08:40:57;;;;;;;70.20;51.97;;;12.80;79.10;;;;;;5017487;28;20216;-61
2021/03/12 08:43:25;;;;;;;74.87;53.60;;;13.00;79.20;;;;;;5020231;28;20286;-62
2021/03/12 08:46:17;;;;;;;71.93;53.10;;;13.30;77.80;;;;;;5005666;28;20683;-58
2021/03/12 08:48:46;;;;;;;76.40;53.87;;;13.50;77.10;;;;;;5013891;28;20203;-62
2021/03/12 08:51:15;;;;;;;73.83;54.33;;;13.80;77.20;;;;;;5014497;28;20606;-61
2021/03/12 08:53:53;;;;;;;69.60;51.47;;;14.10;75.80;;;;;;5011087;28;20317;-61
2021/03/12 08:56:28;;;;;;;70.73;52.03;;;14.40;74.30;;;;;;5016949;28;20588;-58
2021/03/12 08:58:55;;;;;;;65.37;49.10;;;14.60;74.10;;;;;;5020816;28;20641;-61
2021/03/12 09:01:27;;;;;;;65.83;50.03;;;14.80;73.00;;;;;;5019874;28;20230;-59
2021/03/12 09:04:02;;;;;;;74.40;51.40;;;15.00;71.80;;;;;;5019427;28;20204;-58
2021/03/12 09:06:33;;;;;;;72.93;52.30;;;15.20;71.50;;;;;;5013103;28;20223;-60
2021/03/12 09:09:07;;;;;;;66.33;50.10;;;15.10;71.40;;;;;;5001880;28;20290;-61
2021/03/12 09:11:34;;;;;;;71.10;50.23;;;15.10;70.90;;;;;;5024452;28;20208;-58
2021/03/12 09:14:02;;;;;;;64.30;49.17;;;15.10;71.50;;;;;;5025458;28;20560;-58
2021/03/12 09:16:31;;;;;;;67.33;49.70;;;15.00;70.60;;;;;;5018557;28;20214;-62
2021/03/12 09:19:01;;;;;;;64.03;48.63;;;14.90;70.60;;;;;;5023207;28;20269;-61
2021/03/12 09:21:29;;;;;;;64.50;48.60;;;14.90;70.70;;;;;;5013342;28;20225;-63
2021/03/12 09:24:01;;;;;;;65.97;50.43;;;14.80;70.80;;;;;;5013198;28;20242;-58
2021/03/12 09:26:33;;;;;;;65.60;48.43;;;14.80;72.10;;;;;;5020803;28;20648;-62
2021/03/12 09:29:05;;;;;;;61.83;46.70;;;14.90;71.20;;;;;;5015498;28;20203;-59
2021/03/12 09:31:36;;;;;;;62.77;48.53;;;14.80;71.10;;;;;;5015458;28;20273;-63
2021/03/12 09:34:05;;;;;;;67.57;52.20;;;14.70;71.20;;;;;;5030403;28;20231;-60
2021/03/12 09:36:47;;;;;;;66.27;51.03;;;14.60;72.00;;;;;;5029696;28;20219;-60
2021/03/12 09:39:22;;;;;;;66.67;50.27;;;14.50;72.90;;;;;;5029007;28;20297;-59
2021/03/12 09:42:07;;;;;;;69.93;49.20;;;14.40;73.10;;;;;;5015487;28;20599;-61
2021/03/12 09:44:36;;;;;;;70.87;47.97;;;14.40;73.40;;;;;;5007766;28;20349;-63
2021/03/12 09:47:10;;;;;;;61.60;48.73;;;14.40;73.70;;;;;;5012416;28;20648;-62
2021/03/12 09:49:43;;;;;;;64.77;47.20;;;14.40;72.90;;;;;;5016109;28;20211;-59
2021/03/12 09:52:13;;;;;;;64.33;49.73;;;14.40;73.50;;;;;;5008976;28;20302;-62
2021/03/12 09:54:42;;;;;;;63.47;48.03;;;14.40;73.30;;;;;;5003583;28;20325;-59
2021/03/12 09:57:11;;;;;;;69.53;50.53;;;14.50;73.70;;;;;;5027045;28;20208;-61
2021/03/12 09:59:39;;;;;;;65.20;44.97;;;14.50;74.30;;;;;;5031966;28;20207;-59
2021/03/12 10:02:18;;;;;;;67.57;47.83;;;14.50;73.50;;;;;;5026213;28;20338;-63
2021/03/12 10:04:54;;;;;;;66.50;47.80;;;14.30;73.10;;;;;;5021237;28;20659;-60
2021/03/12 10:07:41;;;;;;;64.97;48.50;;;14.20;73.80;;;;;;5020554;28;20207;-63
2021/03/12 10:10:28;;;;;;;64.83;47.50;;;14.30;74.30;;;;;;5014960;28;20610;-59
2021/03/12 10:13:00;;;;;;;67.83;51.53;;;14.30;73.40;;;;;;5039305;28;20243;-62
2021/03/12 10:15:38;;;;;;;67.90;49.87;;;14.10;74.40;;;;;;5038537;28;20262;-60
2021/03/12 10:18:15;;;;;;;66.33;49.63;;;14.10;75.40;;;;;;5038743;28;20198;-60
2021/03/12 10:20:42;;;;;;;68.53;51.40;;;14.10;75.10;;;;;;5028253;28;20225;-59
2021/03/12 10:23:11;;;;;;;62.27;46.93;;;14.20;75.20;;;;;;5019100;28;20211;-59
2021/03/12 10:25:43;;;;;;;69.93;50.10;;;14.20;75.30;;;;;;5041038;28;20211;-61
2021/03/12 10:28:11;;;;;;;79.63;53.73;;;14.20;75.90;;;;;;5038748;28;20531;-62
2021/03/12 10:30:48;;;;;;;75.70;52.33;;;14.20;76.10;;;;;;5014436;28;20211;-63
2021/03/12 10:33:24;;;;;;;76.07;54.70;;;14.30;76.00;;;;;;5031088;28;20241;-61
2021/03/12 10:35:52;;;;;;;70.00;50.17;;;14.30;76.10;;;;;;5030440;28;20253;-60
2021/03/12 10:38:27;;;;;;;69.90;48.70;;;14.40;76.60;;;;;;5038330;28;20636;-57
2021/03/12 10:41:00;;;;;;;75.07;53.50;;;14.60;75.70;;;;;;5033891;28;20576;-62
2021/03/12 10:43:29;;;;;;;68.83;50.33;;;14.60;75.40;;;;;;5010209;28;20214;-60
2021/03/12 10:45:56;;;;;;;78.07;51.87;;;14.60;75.60;;;;;;5009851;28;20211;-58
2021/03/12 10:48:26;;;;;;;60.97;47.40;;;14.60;75.50;;;;;;5034389;28;20217;-61
2021/03/12 10:51:03;;;;;;;65.60;47.00;;;14.50;75.40;;;;;;5031633;28;20257;-61
2021/03/12 10:53:55;;;;;;;66.60;49.13;;;14.40;74.60;;;;;;5035931;28;20207;-61
2021/03/12 10:56:24;;;;;;;64.63;49.37;;;14.30;75.10;;;;;;5029577;28;20303;-61
2021/03/12 10:58:53;;;;;;;68.20;47.63;;;14.40;75.30;;;;;;5034848;28;20223;-61
2021/03/12 11:01:23;;;;;;;66.57;47.97;;;14.50;75.30;;;;;;5009725;28;20218;-61
2021/03/12 11:03:51;;;;;;;61.57;45.30;;;14.50;75.20;;;;;;5032388;28;20705;-61
2021/03/12 11:06:21;;;;;;;61.63;46.83;;;14.50;74.40;;;;;;5016080;28;20230;-59
2021/03/12 11:08:48;;;;;;;62.17;46.83;;;14.50;75.00;;;;;;5029917;28;20199;-62
2021/03/12 11:11:23;;;;;;;63.43;48.17;;;14.60;75.10;;;;;;5036637;28;20208;-60
2021/03/12 11:13:51;;;;;;;67.73;48.33;;;14.70;75.30;;;;;;5031418;28;20687;-59
2021/03/12 11:16:18;;;;;;;62.67;47.43;;;14.90;75.30;;;;;;5031769;28;20310;-60
2021/03/12 11:18:45;;;;;;;69.73;51.27;;;15.20;74.00;;;;;;5016934;28;20249;-61
2021/03/12 11:21:13;;;;;;;66.47;49.80;;;15.50;74.00;;;;;;5030216;28;20277;-60
2021/03/12 11:23:45;;;;;;;67.87;51.60;;;15.70;74.60;;;;;;5029688;28;20281;-58
2021/03/12 11:26:12;;;;;;;64.63;47.00;;;15.90;72.60;;;;;;5034167;28;20294;-60
2021/03/12 11:28:40;;;;;;;64.00;49.23;;;15.90;71.90;;;;;;5042757;28;20613;-60
2021/03/12 11:31:06;;;;;;;69.37;49.27;;;16.00;71.70;;;;;;5041180;28;20203;-63
2021/03/12 11:33:34;;;;;;;68.70;49.77;;;15.90;71.90;;;;;;5019341;28;20239;-61
2021/03/12 11:36:04;;;;;;;65.57;46.90;;;16.00;71.30;;;;;;5042309;28;20313;-60
2021/03/12 11:38:31;;;;;;;69.17;50.93;;;16.20;71.40;;;;;;5033308;28;20243;-59
2021/03/12 11:40:58;;;;;;;57.03;42.73;;;16.40;70.80;;;;;;5035296;28;20220;-58
2021/03/12 11:43:27;;;;;;;61.57;43.63;;;16.40;69.10;;;;;;5010730;28;20204;-60
2021/03/12 11:45:54;;;;;;;56.07;41.37;;;16.40;68.80;;;;;;5036101;28;20305;-59
2021/03/12 11:48:23;;;;;;;51.33;37.07;;;16.40;69.00;;;;;;5042011;28;20207;-60
2021/03/12 11:50:52;;;;;;;49.30;37.47;;;16.40;68.70;;;;;;5042926;28;20210;-59
2021/03/12 11:53:20;;;;;;;50.73;37.30;;;16.30;67.00;;;;;;5016834;28;20217;-58
2021/03/12 11:55:47;;;;;;;47.30;36.50;;;16.10;68.70;;;;;;5044264;28;20313;-61
2021/03/12 11:58:15;;;;;;;51.40;38.90;;;16.00;68.20;;;;;;5043032;28;20326;-61
2021/03/12 12:00:42;;;;;;;55.63;39.03;;;16.00;68.20;;;;;;5015214;28;20804;-60
2021/03/12 12:03:10;;;;;;;51.23;38.67;;;16.00;68.50;;;;;;5020491;28;20598;-59
2021/03/12 12:05:37;;;;;;;59.20;41.70;;;15.90;69.70;;;;;;5028468;28;20206;-59
2021/03/12 12:08:04;;;;;;;57.07;40.57;;;16.00;70.00;;;;;;5032563;28;22173;-59
2021/03/12 12:10:31;;;;;;;63.33;42.30;;;16.00;68.90;;;;;;5042691;28;20206;-58
2021/03/12 12:12:58;;;;;;;60.90;43.20;;;15.90;69.80;;;;;;5033376;28;20637;-62
2021/03/12 12:15:26;;;;;;;56.10;40.50;;;15.90;69.90;;;;;;5042520;28;20231;-60
2021/03/12 12:17:59;;;;;;;63.97;42.97;;;15.90;69.60;;;;;;5044811;28;20215;-61
2021/03/12 12:20:29;;;;;;;56.23;42.23;;;15.90;69.50;;;;;;5034823;28;20204;-61
2021/03/12 12:22:56;;;;;;;55.47;40.70;;;15.90;70.00;;;;;;5033550;28;20215;-61
2021/03/12 12:25:23;;;;;;;54.13;40.60;;;16.00;69.90;;;;;;5017150;28;20222;-61
2021/03/12 12:27:50;;;;;;;54.07;40.00;;;16.00;69.80;;;;;;5038632;28;20214;-61
2021/03/12 12:30:17;;;;;;;55.07;38.23;;;16.00;69.60;;;;;;5014517;28;20217;-61
2021/03/12 12:32:44;;;;;;;52.33;38.03;;;15.90;69.50;;;;;;5033920;28;20719;-60
2021/03/12 12:35:13;;;;;;;50.97;38.23;;;16.00;69.90;;;;;;5035940;28;20230;-60
2021/03/12 12:37:47;;;;;;;51.07;37.10;;;16.10;69.40;;;;;;5036781;28;20535;-61
2021/03/12 12:40:14;;;;;;;48.57;35.33;;;16.30;69.70;;;;;;5033746;28;20213;-61
2021/03/12 12:42:41;;;;;;;47.83;34.67;;;16.30;69.40;;;;;;5034038;28;20206;-61
2021/03/12 12:45:08;;;;;;;49.40;37.37;;;16.40;68.40;;;;;;5038464;28;20211;-61